Time;durP1;ratioP1;P1;durP2;ratioP2;P2;SDS_P1;SDS_P2;PMS_P1;PMS_P2;Temp;Humidity;BMP_temperature;BMP_pressure;BME280_temperature;BME280_humidity;BME280_pressure;Samples;Min_cycle;Max_cycle;Signal;HPM_P1;HPM_P2
2022/04/23 00:01:42;;;;;;;8.75;3.90;;;11.60;99.90;;;;;;5017880;28;20029;-67
2022/04/23 00:04:09;;;;;;;;;;;11.60;99.90;;;;;;5015704;28;20047;-66
2022/04/23 00:06:35;;;;;;;8.88;4.32;;;11.60;99.90;;;;;;5004501;28;20396;-67
2022/04/23 00:09:01;;;;;;;7.15;4.20;;;11.60;99.90;;;;;;5015275;28;20406;-67
2022/04/23 00:11:27;;;;;;;10.87;4.87;;;11.60;99.90;;;;;;5006313;28;20049;-66
2022/04/23 00:13:52;;;;;;;8.00;5.03;;;11.60;99.90;;;;;;5010781;28;20048;-66
2022/04/23 00:16:19;;;;;;;16.37;5.37;;;11.60;99.90;;;;;;5014199;28;20546;-66
2022/04/23 00:18:45;;;;;;;9.82;5.75;;;11.50;99.90;;;;;;5021998;28;20037;-66
2022/04/23 00:21:11;;;;;;;8.43;5.22;;;11.60;99.90;;;;;;4995894;28;20583;-66
2022/04/23 00:23:36;;;;;;;11.37;5.03;;;11.60;99.90;;;;;;5019984;28;20439;-66
2022/04/23 00:26:02;;;;;;;9.53;5.47;;;11.60;99.90;;;;;;5010117;28;20041;-66
2022/04/23 00:28:28;;;;;;;15.68;5.60;;;11.50;99.90;;;;;;5019321;28;20057;-66
2022/04/23 00:30:54;;;;;;;10.23;6.07;;;11.60;99.90;;;;;;5015981;28;20046;-66
2022/04/23 00:33:20;;;;;;;12.13;5.93;;;11.50;99.90;;;;;;5006209;28;20321;-66
2022/04/23 00:35:48;;;;;;;11.20;5.55;;;11.50;99.90;;;;;;5010880;28;20304;-66
2022/04/23 00:38:16;;;;;;;9.65;5.68;;;11.50;99.90;;;;;;5012292;28;20076;-66
2022/04/23 00:40:43;;;;;;;11.65;5.15;;;11.50;99.90;;;;;;4998425;28;20057;-66
2022/04/23 00:43:33;;;;;;;9.52;5.75;;;11.40;99.90;;;;;;5020775;28;20042;-71
2022/04/23 00:46:00;;;;;;;12.35;6.63;;;11.40;99.90;;;;;;4998362;28;20171;-66
2022/04/23 00:48:26;;;;;;;;;;;11.40;99.90;;;;;;5002134;28;20270;-66
2022/04/23 00:50:54;;;;;;;12.13;5.35;;;11.40;99.90;;;;;;5028031;28;20290;-68
2022/04/23 00:53:21;;;;;;;9.80;5.75;;;11.30;99.90;;;;;;5014066;28;20126;-67
2022/04/23 00:55:47;;;;;;;;;;;11.30;99.90;;;;;;5020854;28;20406;-67
2022/04/23 00:58:16;;;;;;;10.98;5.22;;;11.30;99.90;;;;;;5022252;28;19928;-66
2022/04/23 01:00:43;;;;;;;12.75;6.03;;;11.30;99.90;;;;;;5019106;28;20034;-66
2022/04/23 01:03:08;;;;;;;10.35;5.63;;;11.20;99.90;;;;;;5020889;28;20050;-68
2022/04/23 01:05:34;;;;;;;11.75;5.63;;;11.20;99.90;;;;;;5017403;28;20044;-69
2022/04/23 01:08:02;;;;;;;8.77;5.78;;;11.20;99.90;;;;;;5014972;28;20409;-66
2022/04/23 01:10:28;;;;;;;9.95;5.30;;;11.20;99.90;;;;;;5018564;28;20052;-66
2022/04/23 01:12:54;;;;;;;10.13;5.97;;;11.10;99.90;;;;;;5018785;28;20151;-66
2022/04/23 01:15:21;;;;;;;10.80;5.07;;;11.10;99.90;;;;;;5025924;28;20053;-66
2022/04/23 01:17:50;;;;;;;9.30;5.40;;;11.10;99.90;;;;;;5027089;28;20672;-66
2022/04/23 01:20:16;;;;;;;9.95;5.18;;;11.10;99.90;;;;;;5017800;28;20046;-65
2022/04/23 01:22:43;;;;;;;13.23;5.65;;;11.10;99.90;;;;;;5023340;28;20468;-66
2022/04/23 01:25:12;;;;;;;12.77;6.30;;;11.00;99.90;;;;;;5010208;28;20030;-66
2022/04/23 01:27:39;;;;;;;10.32;6.13;;;11.00;99.90;;;;;;5024251;28;20465;-66
2022/04/23 01:30:06;;;;;;;11.20;5.57;;;11.00;99.90;;;;;;5006919;28;20037;-66
2022/04/23 01:32:33;;;;;;;13.23;6.10;;;11.00;99.90;;;;;;5010570;28;20037;-66
2022/04/23 01:34:58;;;;;;;8.75;5.68;;;11.00;99.90;;;;;;5014683;28;20476;-66
2022/04/23 01:37:24;;;;;;;14.32;6.22;;;11.00;99.90;;;;;;5023769;28;20037;-66
2022/04/23 01:39:50;;;;;;;16.67;5.13;;;10.90;99.90;;;;;;5020933;28;20144;-67
2022/04/23 01:42:17;;;;;;;11.50;6.57;;;10.90;99.90;;;;;;5023756;28;20426;-66
2022/04/23 01:44:53;;;;;;;13.95;6.40;;;10.90;99.90;;;;;;5018137;28;20038;-67
2022/04/23 01:47:19;;;;;;;12.98;6.28;;;10.90;99.90;;;;;;5021308;28;20048;-67
2022/04/23 01:49:45;;;;;;;14.25;6.40;;;10.90;99.90;;;;;;5024331;28;20111;-67
2022/04/23 01:52:14;;;;;;;10.30;5.78;;;10.80;99.90;;;;;;5014487;28;20881;-67
2022/04/23 01:54:39;;;;;;;12.63;5.85;;;10.80;99.90;;;;;;5023004;28;20047;-67
2022/04/23 01:57:05;;;;;;;10.17;6.37;;;10.80;99.90;;;;;;5010941;28;20041;-67
2022/04/23 01:59:31;;;;;;;12.00;6.72;;;10.80;99.90;;;;;;5034768;28;20268;-67
2022/04/23 02:01:58;;;;;;;12.00;5.80;;;10.80;99.90;;;;;;4999316;28;20033;-67
2022/04/23 02:04:24;;;;;;;14.90;6.38;;;10.80;99.90;;;;;;5023303;28;20044;-67
2022/04/23 02:06:50;;;;;;;14.68;7.15;;;10.80;99.90;;;;;;5032680;28;20413;-67
2022/04/23 02:09:16;;;;;;;11.77;6.30;;;10.70;99.90;;;;;;5021795;28;20049;-67
2022/04/23 02:11:41;;;;;;;12.13;6.10;;;10.70;99.90;;;;;;5009670;28;20037;-67
2022/04/23 02:14:08;;;;;;;14.83;7.13;;;10.70;99.90;;;;;;5020043;28;20478;-66
2022/04/23 02:16:33;;;;;;;;;;;10.60;99.90;;;;;;5019014;28;20033;-66
2022/04/23 02:18:59;;;;;;;16.17;6.38;;;10.60;99.90;;;;;;5036505;28;20251;-67
2022/04/23 02:21:25;;;;;;;12.40;6.43;;;10.60;99.90;;;;;;5014968;28;20115;-67
2022/04/23 02:23:53;;;;;;;11.50;6.53;;;10.50;99.90;;;;;;5026209;28;20033;-67
2022/04/23 02:26:20;;;;;;;15.38;7.00;;;10.50;99.90;;;;;;5028046;28;20418;-67
2022/04/23 02:28:47;;;;;;;13.52;6.72;;;10.50;99.90;;;;;;5034138;28;20053;-67
2022/04/23 02:31:13;;;;;;;12.25;6.47;;;10.50;99.90;;;;;;5025443;28;20529;-67
2022/04/23 02:33:38;;;;;;;11.48;7.05;;;10.50;99.90;;;;;;5021445;28;20026;-67
2022/04/23 02:36:06;;;;;;;14.77;7.00;;;10.40;99.90;;;;;;5035413;28;20095;-67
2022/04/23 02:38:32;;;;;;;10.90;7.38;;;10.40;99.90;;;;;;5040579;28;20041;-67
2022/04/23 02:40:58;;;;;;;;;;;10.40;99.90;;;;;;5025091;28;20069;-67
2022/04/23 02:43:23;;;;;;;10.93;6.93;;;10.40;99.90;;;;;;5026035;28;19975;-67
2022/04/23 02:45:49;;;;;;;12.70;7.77;;;10.40;99.90;;;;;;5023185;28;20033;-68
2022/04/23 02:48:15;;;;;;;13.77;7.07;;;10.30;99.90;;;;;;5019398;28;20045;-66
2022/04/23 02:50:41;;;;;;;12.98;7.35;;;10.30;99.90;;;;;;5036429;22;20044;-71
2022/04/23 02:53:08;;;;;;;14.13;7.20;;;10.30;99.90;;;;;;5056540;28;20437;-70
2022/04/23 02:55:37;;;;;;;10.60;6.55;;;10.30;99.90;;;;;;5057691;28;20081;-71
2022/04/23 02:58:10;;;;;;;11.55;7.72;;;10.30;99.90;;;;;;5043098;28;20045;-70
2022/04/23 03:00:41;;;;;;;14.90;8.32;;;10.30;99.90;;;;;;5042057;28;20098;-70
2022/04/23 03:03:11;;;;;;;11.40;7.43;;;10.30;99.90;;;;;;5028725;28;20075;-71
2022/04/23 03:05:41;;;;;;;14.70;7.30;;;10.30;99.90;;;;;;5042877;28;20037;-71
2022/04/23 03:08:07;;;;;;;15.43;7.53;;;10.30;99.90;;;;;;5036330;28;20263;-70
2022/04/23 03:10:32;;;;;;;15.23;7.03;;;10.30;99.90;;;;;;5021809;28;20041;-70
2022/04/23 03:12:58;;;;;;;11.57;7.30;;;10.30;99.90;;;;;;5041176;28;20088;-70
2022/04/23 03:15:28;;;;;;;15.07;7.80;;;10.20;99.90;;;;;;5039642;28;20063;-70
2022/04/23 03:18:08;;;;;;;13.93;8.05;;;10.20;99.90;;;;;;5038457;28;20549;-70
2022/04/23 03:20:34;;;;;;;11.20;7.60;;;10.20;99.90;;;;;;5038284;28;20034;-70
2022/04/23 03:23:00;;;;;;;16.33;8.02;;;10.20;99.90;;;;;;5025879;28;20109;-71
2022/04/23 03:25:26;;;;;;;13.18;7.70;;;10.20;99.90;;;;;;5024574;28;20482;-71
2022/04/23 03:27:55;;;;;;;12.48;6.90;;;10.20;99.90;;;;;;5036875;28;20116;-70
2022/04/23 03:30:21;;;;;;;13.65;8.00;;;10.20;99.90;;;;;;5048055;28;20033;-70
2022/04/23 03:32:47;;;;;;;20.05;7.97;;;10.20;99.90;;;;;;5042657;28;20033;-70
2022/04/23 03:35:14;;;;;;;16.65;8.50;;;10.30;99.90;;;;;;5034262;28;20056;-71
2022/04/23 03:37:42;;;;;;;;;;;10.20;99.90;;;;;;5041817;28;20138;-70
2022/04/23 03:40:09;;;;;;;16.27;7.53;;;10.20;99.90;;;;;;5044544;28;20269;-71
2022/04/23 03:42:35;;;;;;;15.55;7.35;;;10.20;99.90;;;;;;5021177;28;20041;-71
2022/04/23 03:45:05;;;;;;;15.45;8.02;;;10.20;99.90;;;;;;5025374;28;20153;-70
2022/04/23 03:47:31;;;;;;;14.60;7.32;;;10.20;99.90;;;;;;5023835;28;20481;-70
2022/04/23 03:50:01;;;;;;;12.65;7.80;;;10.20;99.90;;;;;;5041804;28;20045;-70
2022/04/23 03:52:27;;;;;;;11.15;7.40;;;10.20;99.90;;;;;;5022425;28;20045;-73
2022/04/23 03:54:53;;;;;;;12.80;7.63;;;10.10;99.90;;;;;;5024856;28;20559;-70
2022/04/23 03:57:18;;;;;;;16.40;7.97;;;10.10;99.90;;;;;;5040333;28;20037;-70
2022/04/23 03:59:46;;;;;;;11.00;7.73;;;10.10;99.90;;;;;;5042722;28;20045;-70
2022/04/23 04:02:11;;;;;;;13.30;7.85;;;10.10;99.90;;;;;;5023970;28;20048;-70
2022/04/23 04:04:37;;;;;;;13.30;7.77;;;10.10;99.90;;;;;;5022786;28;20192;-70
2022/04/23 04:07:03;;;;;;;18.00;7.50;;;10.10;99.90;;;;;;5043339;28;20045;-70
2022/04/23 04:09:29;;;;;;;14.25;7.13;;;10.10;99.90;;;;;;5042077;28;20654;-70
2022/04/23 04:12:06;;;;;;;14.75;7.22;;;10.10;99.90;;;;;;5023879;28;20280;-70
2022/04/23 04:14:36;;;;;;;10.35;7.25;;;10.00;99.90;;;;;;5043770;28;20045;-71
2022/04/23 04:17:09;;;;;;;12.30;6.88;;;10.00;99.90;;;;;;5021990;28;20187;-70
2022/04/23 04:19:35;;;;;;;16.33;7.90;;;10.00;99.90;;;;;;5017284;28;20041;-70
2022/04/23 04:22:06;;;;;;;14.35;7.50;;;10.00;99.90;;;;;;5044208;28;20037;-71
2022/04/23 04:24:32;;;;;;;10.88;6.38;;;10.00;99.90;;;;;;5013193;28;20476;-70
2022/04/23 04:27:00;;;;;;;13.57;7.22;;;10.00;99.90;;;;;;5017009;28;20328;-70
2022/04/23 04:29:26;;;;;;;13.63;6.82;;;10.00;99.90;;;;;;5043154;28;20045;-70
2022/04/23 04:31:51;;;;;;;14.93;7.95;;;9.90;99.90;;;;;;5023868;28;20355;-70
2022/04/23 04:34:21;;;;;;;11.63;7.37;;;9.90;99.90;;;;;;5039636;28;20033;-70
2022/04/23 04:36:51;;;;;;;11.30;6.70;;;9.90;99.90;;;;;;5020446;28;20055;-70
2022/04/23 04:39:17;;;;;;;12.60;7.30;;;9.90;99.90;;;;;;5037856;28;20033;-70
2022/04/23 04:41:44;;;;;;;10.80;7.28;;;9.90;99.90;;;;;;5042759;28;20037;-71
2022/04/23 04:44:10;;;;;;;14.48;7.50;;;9.90;99.90;;;;;;5041985;28;20037;-70
2022/04/23 04:46:36;;;;;;;11.00;6.65;;;9.90;99.90;;;;;;5006319;28;20049;-70
2022/04/23 04:49:03;;;;;;;;;;;9.90;99.90;;;;;;5039943;28;20043;-70
2022/04/23 04:51:29;;;;;;;13.20;6.88;;;9.90;99.90;;;;;;5021737;28;20023;-70
2022/04/23 04:53:55;;;;;;;13.20;6.82;;;9.90;99.90;;;;;;4999814;28;20124;-71
2022/04/23 04:56:21;;;;;;;11.02;7.28;;;9.90;99.90;;;;;;5038521;28;20059;-71
2022/04/23 04:58:47;;;;;;;10.20;6.73;;;9.90;99.90;;;;;;5041217;28;20040;-71
2022/04/23 05:01:13;;;;;;;12.15;7.20;;;9.90;99.90;;;;;;5035770;28;20496;-70
2022/04/23 05:03:40;;;;;;;;;;;9.90;99.90;;;;;;5038130;28;20033;-68
2022/04/23 05:06:09;;;;;;;10.13;6.80;;;9.90;99.90;;;;;;5021786;28;20427;-69
2022/04/23 05:08:36;;;;;;;11.82;7.00;;;9.90;99.90;;;;;;5040230;28;20119;-68
2022/04/23 05:11:01;;;;;;;;;;;9.90;99.90;;;;;;5039280;28;20501;-68
2022/04/23 05:13:27;;;;;;;9.93;6.97;;;9.90;99.90;;;;;;5015640;28;19947;-70
2022/04/23 05:15:53;;;;;;;12.53;7.60;;;9.90;99.90;;;;;;5022003;28;20114;-69
2022/04/23 05:18:18;;;;;;;11.97;6.80;;;9.90;99.90;;;;;;5040521;28;20233;-68
2022/04/23 05:20:44;;;;;;;12.73;7.03;;;9.90;99.90;;;;;;5042467;28;20098;-71
2022/04/23 05:23:10;;;;;;;11.10;7.20;;;9.90;99.90;;;;;;5024928;28;20029;-70
2022/04/23 05:25:35;;;;;;;14.40;7.53;;;10.00;99.90;;;;;;5021808;28;20120;-70
2022/04/23 05:28:01;;;;;;;9.53;6.20;;;10.00;99.90;;;;;;5036140;28;20044;-69
2022/04/23 05:30:27;;;;;;;11.63;7.65;;;10.00;99.90;;;;;;5019355;28;20095;-70
2022/04/23 05:32:52;;;;;;;11.67;7.40;;;10.00;99.90;;;;;;5041792;28;20098;-69
2022/04/23 05:35:18;;;;;;;11.10;7.60;;;10.00;99.90;;;;;;5020943;28;20041;-70
2022/04/23 05:37:43;;;;;;;11.53;7.20;;;10.00;99.90;;;;;;5025030;28;20559;-70
2022/04/23 05:40:09;;;;;;;11.40;7.70;;;10.00;99.90;;;;;;5044124;28;20037;-70
2022/04/23 05:42:38;;;;;;;13.07;7.20;;;10.00;99.90;;;;;;5040315;28;20109;-70
2022/04/23 05:45:04;;;;;;;10.93;6.45;;;10.10;99.90;;;;;;5022501;28;20063;-71
2022/04/23 05:47:29;;;;;;;9.95;6.70;;;10.10;99.90;;;;;;5021031;28;20090;-70
2022/04/23 05:49:55;;;;;;;11.53;7.17;;;10.10;99.90;;;;;;5039475;28;20083;-68
2022/04/23 05:52:20;;;;;;;17.03;8.07;;;10.10;99.90;;;;;;5041561;28;20067;-69
2022/04/23 05:54:46;;;;;;;11.93;7.50;;;10.20;99.90;;;;;;5029645;28;21756;-70
2022/04/23 05:57:11;;;;;;;11.40;6.87;;;10.10;99.90;;;;;;5014233;28;20109;-69
2022/04/23 05:59:37;;;;;;;12.87;6.47;;;10.20;99.90;;;;;;5042487;28;20147;-69
2022/04/23 06:02:04;;;;;;;10.77;7.17;;;10.20;99.90;;;;;;5042000;28;20392;-69
2022/04/23 06:04:30;;;;;;;;;;;10.20;99.90;;;;;;5045280;28;20404;-70
2022/04/23 06:06:58;;;;;;;9.07;6.78;;;10.30;99.90;;;;;;5046927;28;19916;-69
2022/04/23 06:09:24;;;;;;;11.13;7.25;;;10.30;99.90;;;;;;5029062;28;20045;-70
2022/04/23 06:11:49;;;;;;;12.87;7.40;;;10.30;99.90;;;;;;5028561;28;20037;-69
2022/04/23 06:14:15;;;;;;;11.70;7.07;;;10.30;99.90;;;;;;5043021;28;20791;-69
2022/04/23 06:16:40;;;;;;;10.77;6.43;;;10.40;99.90;;;;;;5038368;28;20033;-69
2022/04/23 06:19:06;;;;;;;10.00;7.00;;;10.50;99.90;;;;;;5045399;28;20444;-69
2022/04/23 06:21:32;;;;;;;11.37;6.93;;;10.40;99.90;;;;;;5045501;28;20091;-70
2022/04/23 06:23:57;;;;;;;14.53;7.43;;;10.40;99.90;;;;;;5037639;28;20033;-70
2022/04/23 06:26:23;;;;;;;15.33;7.73;;;10.50;99.90;;;;;;5037316;28;20505;-70
2022/04/23 06:28:48;;;;;;;9.77;6.73;;;10.60;99.90;;;;;;5042611;28;20385;-69
2022/04/23 06:31:14;;;;;;;11.23;7.03;;;10.50;99.90;;;;;;5024210;28;20083;-70
2022/04/23 06:33:42;;;;;;;11.48;7.40;;;10.50;99.90;;;;;;5040294;28;20049;-70
2022/04/23 06:36:10;;;;;;;11.38;7.20;;;10.60;99.90;;;;;;5011870;28;20088;-69
2022/04/23 06:38:36;;;;;;;9.88;6.75;;;10.60;99.90;;;;;;5027401;28;20112;-69
2022/04/23 06:41:02;;;;;;;11.13;7.20;;;10.70;99.90;;;;;;5024127;28;20072;-70
2022/04/23 06:43:30;;;;;;;12.23;7.50;;;10.70;99.90;;;;;;5041273;28;20217;-70
2022/04/23 06:45:56;;;;;;;12.13;7.03;;;10.70;99.90;;;;;;5020855;28;20041;-69
2022/04/23 06:48:21;;;;;;;11.63;7.70;;;10.80;99.90;;;;;;5040173;28;20047;-70
2022/04/23 06:50:47;;;;;;;12.33;7.80;;;10.80;99.90;;;;;;5047538;28;20060;-69
2022/04/23 06:53:12;;;;;;;11.30;7.23;;;10.90;99.90;;;;;;5029208;28;20047;-69
2022/04/23 06:55:38;;;;;;;12.87;7.67;;;11.00;99.90;;;;;;5045628;28;20053;-69
2022/04/23 06:58:03;;;;;;;13.70;7.13;;;11.00;99.90;;;;;;5024794;28;20314;-69
2022/04/23 07:00:29;;;;;;;10.77;7.23;;;11.00;99.90;;;;;;5037797;28;20064;-70
2022/04/23 07:02:55;;;;;;;11.30;7.50;;;11.10;99.90;;;;;;5024586;28;20056;-69
2022/04/23 07:05:20;;;;;;;14.10;7.93;;;11.10;99.90;;;;;;5046263;28;20212;-69
2022/04/23 07:08:02;;;;;;;12.37;8.17;;;11.10;99.90;;;;;;5046716;28;20040;-70
2022/04/23 07:10:30;;;;;;;12.45;8.05;;;11.20;99.90;;;;;;5044291;28;20293;-70
2022/04/23 07:12:56;;;;;;;11.80;7.93;;;11.30;99.90;;;;;;5046132;28;20037;-69
2022/04/23 07:15:23;;;;;;;;;;;11.30;99.90;;;;;;5029709;28;20043;-69
2022/04/23 07:17:49;;;;;;;12.07;7.30;;;11.40;99.90;;;;;;5047428;28;20376;-70
2022/04/23 07:20:17;;;;;;;11.75;7.20;;;11.50;99.90;;;;;;5043774;28;20067;-70
2022/04/23 07:25:28;;;;;;;11.70;7.97;;;11.60;99.90;;;;;;5031283;28;20037;-70
2022/04/23 07:27:54;;;;;;;13.70;8.05;;;11.70;99.90;;;;;;5041157;28;20040;-70
2022/04/23 07:30:20;;;;;;;11.02;7.85;;;11.80;99.90;;;;;;5036622;28;20457;-70
2022/04/23 07:32:45;;;;;;;13.30;8.50;;;11.90;99.90;;;;;;5024382;28;20102;-70
2022/04/23 07:37:55;;;;;;;12.75;7.20;;;12.00;99.90;;;;;;5041124;28;20076;-70
2022/04/23 07:40:21;;;;;;;11.20;7.87;;;12.10;99.90;;;;;;5020573;28;20544;-69
2022/04/23 07:42:46;;;;;;;12.23;8.05;;;12.10;99.90;;;;;;5042909;28;20053;-69
2022/04/23 07:45:12;;;;;;;12.17;7.67;;;12.20;99.90;;;;;;5040474;28;20528;-69
2022/04/23 07:47:38;;;;;;;11.63;7.13;;;12.30;99.90;;;;;;5029528;28;20512;-69
2022/04/23 07:50:05;;;;;;;15.17;8.00;;;12.40;99.90;;;;;;5023248;28;20079;-70
2022/04/23 07:52:30;;;;;;;12.43;7.45;;;12.50;99.90;;;;;;5037412;28;20033;-69
2022/04/23 07:54:56;;;;;;;10.33;6.93;;;12.50;99.90;;;;;;5020963;28;20052;-69
2022/04/23 07:57:23;;;;;;;10.70;7.27;;;12.60;99.40;;;;;;5020387;28;20326;-69
2022/04/23 07:59:48;;;;;;;12.13;6.90;;;12.70;97.80;;;;;;5026558;28;20048;-71
2022/04/23 08:02:14;;;;;;;12.33;7.43;;;12.70;97.00;;;;;;5032970;28;20140;-70
2022/04/23 08:04:39;;;;;;;11.27;7.00;;;12.70;95.70;;;;;;5023992;28;20239;-70
2022/04/23 08:07:05;;;;;;;10.07;6.70;;;12.80;94.20;;;;;;5024976;28;20040;-71
2022/04/23 08:09:37;;;;;;;11.73;7.10;;;12.80;93.50;;;;;;5040683;28;20069;-69
2022/04/23 08:12:06;;;;;;;11.02;7.03;;;12.90;93.90;;;;;;5019998;28;20093;-69
2022/04/23 08:14:32;;;;;;;11.35;7.28;;;12.90;94.60;;;;;;5018696;28;20055;-70
2022/04/23 08:16:59;;;;;;;9.68;6.78;;;13.00;92.50;;;;;;5040275;28;20061;-70
2022/04/23 08:19:25;;;;;;;13.60;7.75;;;13.10;92.70;;;;;;5027367;28;20107;-70
2022/04/23 08:21:51;;;;;;;11.23;6.63;;;13.10;91.90;;;;;;5040550;28;21579;-69
2022/04/23 08:24:16;;;;;;;10.75;8.25;;;13.10;91.00;;;;;;4994456;28;20387;-70
2022/04/23 08:26:42;;;;;;;14.02;7.20;;;13.10;91.70;;;;;;5040129;28;20115;-70
2022/04/23 08:31:52;;;;;;;10.98;7.72;;;13.30;91.50;;;;;;5037646;28;20049;-71
2022/04/23 08:34:18;;;;;;;9.77;7.00;;;13.40;90.20;;;;;;5041364;28;20138;-69
2022/04/23 08:36:44;;;;;;;10.82;7.65;;;13.40;89.80;;;;;;5020941;28;20128;-70
2022/04/23 08:39:09;;;;;;;19.50;7.03;;;13.50;90.10;;;;;;5021897;28;20492;-71
2022/04/23 08:41:35;;;;;;;9.02;6.78;;;13.50;90.30;;;;;;5043153;28;20531;-70
2022/04/23 08:44:06;;;;;;;10.68;7.43;;;13.60;89.60;;;;;;5035198;28;20354;-71
2022/04/23 08:46:34;;;;;;;13.40;7.35;;;13.60;88.70;;;;;;5039315;28;20131;-70
2022/04/23 08:49:10;;;;;;;12.13;7.80;;;13.70;88.80;;;;;;5019929;28;20123;-70
2022/04/23 08:51:41;;;;;;;10.18;7.25;;;13.80;87.70;;;;;;5073033;22;20057;-83
2022/04/23 08:58:47;;;;;;;;;;;;;;;;;;;;;
2022/04/23 09:01:31;;;;;;;10.52;6.93;;;14.10;81.20;;;;;;5035275;22;20123;-69
2022/04/23 09:03:57;;;;;;;10.47;7.23;;;14.20;81.00;;;;;;5016846;28;20089;-69
2022/04/23 09:06:27;;;;;;;12.35;7.93;;;14.30;78.40;;;;;;5028846;28;20047;-68
2022/04/23 09:09:16;;;;;;;9.57;7.22;;;14.30;76.60;;;;;;5026347;28;20559;-68
2022/04/23 09:11:44;;;;;;;13.07;6.72;;;14.40;76.60;;;;;;5022118;28;20037;-69
2022/04/23 09:14:26;;;;;;;10.38;6.55;;;14.50;76.60;;;;;;5021448;28;20485;-69
2022/04/23 09:25:16;;;;;;;12.90;6.65;;;14.90;69.30;;;;;;5023304;28;20049;-69
2022/04/23 09:27:43;;;;;;;9.15;5.63;;;15.00;67.10;;;;;;5046269;28;20599;-69
2022/04/23 09:30:11;;;;;;;9.70;6.53;;;15.10;66.40;;;;;;5037621;28;20029;-69
2022/04/23 09:32:37;;;;;;;10.00;6.97;;;15.10;66.10;;;;;;5026754;28;20034;-69
2022/04/23 09:35:04;;;;;;;12.27;6.97;;;15.20;66.00;;;;;;5032990;28;20542;-69
2022/04/23 09:40:19;;;;;;;11.43;6.95;;;15.40;64.40;;;;;;5039528;28;20045;-69
2022/04/23 09:43:08;;;;;;;14.48;7.03;;;15.50;61.50;;;;;;5037415;28;20040;-69
2022/04/23 09:45:39;;;;;;;8.90;5.65;;;15.50;60.50;;;;;;5021986;28;20044;-69
2022/04/23 09:48:04;;;;;;;9.98;6.38;;;15.50;62.30;;;;;;5038030;28;20045;-69
2022/04/23 09:50:40;;;;;;;9.70;6.23;;;15.60;63.10;;;;;;5023547;28;20374;-69
2022/04/23 09:53:16;;;;;;;10.45;6.22;;;15.70;62.10;;;;;;5021802;28;20049;-69
2022/04/23 09:55:42;;;;;;;8.30;6.07;;;15.80;61.80;;;;;;5038944;28;20040;-69
2022/04/23 09:58:10;;;;;;;8.57;5.97;;;15.90;61.20;;;;;;5028935;28;20033;-69
2022/04/23 10:00:37;;;;;;;8.88;6.43;;;16.10;59.90;;;;;;5045624;28;20086;-69
2022/04/23 10:03:07;;;;;;;10.35;6.32;;;16.00;59.60;;;;;;5019688;28;20332;-69
2022/04/23 10:05:41;;;;;;;9.60;7.05;;;16.10;60.30;;;;;;5021697;28;20033;-69
2022/04/23 10:08:18;;;;;;;10.77;6.80;;;16.20;58.70;;;;;;5037897;28;20060;-69
2022/04/23 10:10:44;;;;;;;8.70;6.25;;;16.20;59.40;;;;;;5030220;28;20087;-69
2022/04/23 10:13:12;;;;;;;10.40;7.15;;;16.20;59.30;;;;;;5045704;28;20044;-69
2022/04/23 10:15:41;;;;;;;8.73;6.15;;;16.30;58.80;;;;;;5021046;28;20041;-69
2022/04/23 10:18:09;;;;;;;8.90;6.13;;;16.30;58.00;;;;;;5039398;28;20078;-69
2022/04/23 10:20:35;;;;;;;9.77;6.55;;;16.40;58.40;;;;;;5044960;28;20516;-69
2022/04/23 10:23:08;;;;;;;;;;;16.40;57.80;;;;;;5044267;28;20052;-69
2022/04/23 10:25:46;;;;;;;8.38;6.70;;;16.40;56.10;;;;;;5011489;28;19917;-69
2022/04/23 10:28:12;;;;;;;10.50;6.40;;;16.50;57.50;;;;;;5038981;28;20482;-71
2022/04/23 10:30:37;;;;;;;11.90;7.20;;;16.50;57.40;;;;;;5023405;28;20044;-69
2022/04/23 10:33:22;;;;;;;9.85;6.70;;;16.50;57.70;;;;;;5044101;28;20039;-69
2022/04/23 10:36:08;;;;;;;12.73;7.50;;;16.70;58.00;;;;;;5040400;28;20063;-69
2022/04/23 10:38:38;;;;;;;8.82;6.45;;;16.70;56.50;;;;;;5036364;28;20548;-69
2022/04/23 10:41:05;;;;;;;10.13;6.65;;;16.80;57.40;;;;;;5033503;28;20045;-69
2022/04/23 10:43:31;;;;;;;10.20;6.70;;;16.80;57.00;;;;;;5043771;28;20477;-69
2022/04/23 10:45:59;;;;;;;9.65;6.72;;;16.90;57.10;;;;;;5039607;28;20064;-69
2022/04/23 10:48:26;;;;;;;11.43;7.50;;;16.90;56.70;;;;;;5010939;28;20184;-69
2022/04/23 10:51:04;;;;;;;9.18;6.40;;;16.90;56.80;;;;;;5042750;28;20072;-67
2022/04/23 10:53:39;;;;;;;10.85;6.97;;;17.00;57.10;;;;;;5028217;28;20516;-66
2022/04/23 10:56:13;;;;;;;9.63;6.45;;;17.00;56.60;;;;;;5046308;28;20045;-67
2022/04/23 10:58:40;;;;;;;9.82;7.00;;;17.10;56.50;;;;;;5039851;28;20127;-67
2022/04/23 11:01:25;;;;;;;7.63;6.30;;;17.10;56.20;;;;;;5041208;28;20043;-67
2022/04/23 11:04:06;;;;;;;8.85;6.50;;;17.20;56.00;;;;;;5042170;28;20084;-67
2022/04/23 11:12:14;;;;;;;11.05;6.85;;;17.40;55.50;;;;;;5021197;28;20272;-67
2022/04/23 11:12:39;;;;;;;10.13;6.50;;;17.40;55.00;;;;;;5039220;28;20049;-67
2022/04/23 11:15:15;;;;;;;9.45;6.68;;;17.50;55.50;;;;;;5031977;28;20181;-67
2022/04/23 11:17:53;;;;;;;8.77;6.95;;;17.60;54.40;;;;;;5038440;28;20386;-67
2022/04/23 11:20:37;;;;;;;11.88;7.00;;;17.80;54.50;;;;;;5036642;28;20569;-67
2022/04/23 11:23:04;;;;;;;8.65;6.40;;;17.80;54.40;;;;;;5040194;28;20232;-67
2022/04/23 11:25:30;;;;;;;8.77;6.38;;;17.90;54.50;;;;;;5029483;28;20041;-67
2022/04/23 11:28:01;;;;;;;9.77;6.75;;;17.90;53.80;;;;;;5037757;28;20133;-67
2022/04/23 11:30:30;;;;;;;9.70;6.38;;;18.00;53.00;;;;;;5034237;28;20063;-67
2022/04/23 11:33:08;;;;;;;12.50;7.00;;;18.00;52.60;;;;;;5029013;28;20087;-67
2022/04/23 11:35:34;;;;;;;9.25;6.22;;;18.00;52.60;;;;;;5020458;28;20043;-67
2022/04/23 11:37:59;;;;;;;9.52;6.05;;;18.10;53.50;;;;;;5038463;28;20033;-67
2022/04/23 11:40:28;;;;;;;9.05;6.18;;;18.20;53.70;;;;;;5041644;28;20087;-67
2022/04/23 11:42:54;;;;;;;8.43;6.72;;;18.40;52.50;;;;;;5023035;28;20033;-67
2022/04/23 11:45:20;;;;;;;8.38;6.38;;;18.40;51.90;;;;;;5044080;28;20124;-67
2022/04/23 11:47:46;;;;;;;;;;;18.40;52.50;;;;;;5038698;28;20550;-67
2022/04/23 11:50:17;;;;;;;10.55;6.35;;;18.50;51.50;;;;;;5041896;28;20015;-67
2022/04/23 11:52:44;;;;;;;11.88;6.82;;;18.50;52.30;;;;;;5035232;28;20428;-67
2022/04/23 11:55:21;;;;;;;10.05;7.50;;;18.60;51.00;;;;;;5041983;28;20083;-67
2022/04/23 11:57:56;;;;;;;;;;;18.60;49.80;;;;;;5034074;28;20037;-68
2022/04/23 12:00:24;;;;;;;8.10;6.07;;;18.60;48.90;;;;;;5042439;28;20278;-67
2022/04/23 12:02:50;;;;;;;11.35;6.75;;;18.60;49.80;;;;;;5038561;28;20122;-67
2022/04/23 12:05:30;;;;;;;10.02;6.45;;;18.70;49.70;;;;;;5041656;28;20482;-67
2022/04/23 12:07:56;;;;;;;7.97;5.93;;;18.70;48.10;;;;;;5022534;28;20456;-67
2022/04/23 12:10:30;;;;;;;10.27;6.07;;;18.70;48.60;;;;;;5033587;28;20048;-67
2022/04/23 12:13:00;;;;;;;13.50;6.43;;;18.80;48.70;;;;;;5043884;28;20029;-67
2022/04/23 12:15:26;;;;;;;12.40;6.50;;;18.70;47.80;;;;;;5039404;28;20107;-66
2022/04/23 12:17:53;;;;;;;8.23;6.10;;;18.80;48.80;;;;;;5039762;28;20041;-67
2022/04/23 12:20:23;;;;;;;7.15;5.65;;;18.90;48.70;;;;;;5040634;28;20052;-69
2022/04/23 12:23:07;;;;;;;7.45;5.90;;;19.00;48.80;;;;;;5015492;28;20045;-71
2022/04/23 12:25:34;;;;;;;8.55;5.40;;;19.00;48.40;;;;;;4994678;28;20047;-69
2022/04/23 12:40:44;;;;;;;6.82;5.22;;;19.00;49.30;;;;;;5031795;28;20795;-74
2022/04/23 12:42:10;;;;;;;9.00;5.22;;;19.20;49.40;;;;;;4991864;28;20045;-68
2022/04/23 12:44:46;;;;;;;9.52;5.70;;;19.30;49.80;;;;;;5007924;28;20136;-68
2022/04/23 12:47:13;;;;;;;7.03;4.80;;;19.40;50.20;;;;;;5000122;28;20128;-69
2022/04/23 12:49:58;;;;;;;7.55;4.93;;;19.40;49.00;;;;;;4977731;28;20044;-69
2022/04/23 12:52:27;;;;;;;6.35;4.32;;;19.40;47.00;;;;;;5000166;28;20046;-69
2022/04/23 12:55:17;;;;;;;7.43;5.35;;;19.40;47.10;;;;;;5005135;28;20621;-68
2022/04/23 12:57:49;;;;;;;6.93;4.70;;;19.40;46.70;;;;;;5000103;28;20045;-69
2022/04/23 13:00:19;;;;;;;6.40;4.65;;;19.50;46.90;;;;;;4989302;28;20162;-69
2022/04/23 13:02:49;;;;;;;7.68;4.70;;;19.50;46.60;;;;;;4979351;28;20082;-69
2022/04/23 13:05:15;;;;;;;8.05;4.88;;;19.60;46.60;;;;;;4990264;28;20272;-69
2022/04/23 13:10:25;;;;;;;6.47;4.80;;;19.60;46.10;;;;;;5002103;28;20052;-69
2022/04/23 13:12:51;;;;;;;7.85;4.32;;;19.60;46.30;;;;;;5007483;28;20526;-68
2022/04/23 13:15:17;;;;;;;6.07;4.47;;;19.60;46.20;;;;;;4989460;28;20048;-74
2022/04/23 13:17:43;;;;;;;9.13;5.40;;;19.70;45.90;;;;;;4984358;28;20098;-69
2022/04/23 13:20:11;;;;;;;8.23;4.53;;;19.80;46.10;;;;;;5007362;28;20041;-69
2022/04/23 13:22:37;;;;;;;7.13;4.63;;;19.80;46.10;;;;;;4977613;28;20416;-69
2022/04/23 13:25:03;;;;;;;;;;;19.90;46.00;;;;;;4995218;28;20482;-68
2022/04/23 13:27:29;;;;;;;7.03;3.75;;;19.80;44.70;;;;;;4992848;28;19921;-69
2022/04/23 13:29:56;;;;;;;7.45;4.10;;;19.90;46.30;;;;;;4983604;28;20373;-68
2022/04/23 13:32:21;;;;;;;;;;;20.00;45.30;;;;;;4989391;28;20753;-69